sensor_id;sensor_type;location;lat;lon;timestamp;P1;durP1;ratioP1;P2;durP2;ratioP2
3643;SDS011;1838;50.742;7.158;2023-04-25T00:01:36;9.20;;;4.60;;
3643;SDS011;1838;50.742;7.158;2023-04-25T00:04:02;13.70;;;4.50;;
3643;SDS011;1838;50.742;7.158;2023-04-25T00:06:30;14.53;;;5.00;;
3643;SDS011;1838;50.742;7.158;2023-04-25T00:08:57;11.67;;;4.80;;
3643;SDS011;1838;50.742;7.158;2023-04-25T00:11:23;11.00;;;5.33;;
3643;SDS011;1838;50.742;7.158;2023-04-25T00:13:48;12.77;;;4.90;;
3643;SDS011;1838;50.742;7.158;2023-04-25T00:16:15;14.13;;;4.40;;
3643;SDS011;1838;50.742;7.158;2023-04-25T00:18:41;16.23;;;4.70;;
3643;SDS011;1838;50.742;7.158;2023-04-25T00:21:07;12.33;;;4.97;;
3643;SDS011;1838;50.742;7.158;2023-04-25T00:23:33;5.37;;;4.63;;
3643;SDS011;1838;50.742;7.158;2023-04-25T00:26:01;11.80;;;5.00;;
3643;SDS011;1838;50.742;7.158;2023-04-25T00:28:27;16.50;;;5.80;;
3643;SDS011;1838;50.742;7.158;2023-04-25T00:30:52;11.73;;;5.67;;
3643;SDS011;1838;50.742;7.158;2023-04-25T00:33:18;14.50;;;4.90;;
3643;SDS011;1838;50.742;7.158;2023-04-25T00:35:43;15.60;;;5.47;;
3643;SDS011;1838;50.742;7.158;2023-04-25T00:38:09;15.20;;;6.30;;
3643;SDS011;1838;50.742;7.158;2023-04-25T00:40:34;10.40;;;5.60;;
3643;SDS011;1838;50.742;7.158;2023-04-25T00:43:00;12.70;;;5.30;;
3643;SDS011;1838;50.742;7.158;2023-04-25T00:45:29;16.30;;;5.97;;
3643;SDS011;1838;50.742;7.158;2023-04-25T00:47:54;13.93;;;5.83;;
3643;SDS011;1838;50.742;7.158;2023-04-25T00:50:21;14.53;;;5.10;;
3643;SDS011;1838;50.742;7.158;2023-04-25T00:52:46;15.03;;;5.60;;
3643;SDS011;1838;50.742;7.158;2023-04-25T00:55:12;13.43;;;5.20;;
3643;SDS011;1838;50.742;7.158;2023-04-25T00:57:38;14.77;;;5.70;;
3643;SDS011;1838;50.742;7.158;2023-04-25T01:00:05;10.90;;;4.77;;
3643;SDS011;1838;50.742;7.158;2023-04-25T01:02:31;10.93;;;5.13;;
3643;SDS011;1838;50.742;7.158;2023-04-25T01:04:58;13.43;;;5.77;;
3643;SDS011;1838;50.742;7.158;2023-04-25T01:07:24;17.23;;;5.90;;
3643;SDS011;1838;50.742;7.158;2023-04-25T01:09:51;17.47;;;5.63;;
3643;SDS011;1838;50.742;7.158;2023-04-25T01:12:17;16.30;;;5.40;;
3643;SDS011;1838;50.742;7.158;2023-04-25T01:14:43;13.57;;;5.77;;
3643;SDS011;1838;50.742;7.158;2023-04-25T01:17:09;8.57;;;5.03;;
3643;SDS011;1838;50.742;7.158;2023-04-25T01:19:35;13.97;;;4.80;;
3643;SDS011;1838;50.742;7.158;2023-04-25T01:22:00;10.03;;;5.00;;
3643;SDS011;1838;50.742;7.158;2023-04-25T01:24:26;16.83;;;5.93;;
3643;SDS011;1838;50.742;7.158;2023-04-25T01:26:52;15.00;;;5.57;;
3643;SDS011;1838;50.742;7.158;2023-04-25T01:29:21;12.27;;;5.57;;
3643;SDS011;1838;50.742;7.158;2023-04-25T01:31:47;15.00;;;6.30;;
3643;SDS011;1838;50.742;7.158;2023-04-25T01:34:13;19.40;;;5.47;;
3643;SDS011;1838;50.742;7.158;2023-04-25T01:36:39;8.40;;;4.23;;
3643;SDS011;1838;50.742;7.158;2023-04-25T01:39:05;16.53;;;5.93;;
3643;SDS011;1838;50.742;7.158;2023-04-25T01:41:31;13.43;;;5.10;;
3643;SDS011;1838;50.742;7.158;2023-04-25T01:43:57;14.63;;;5.73;;
3643;SDS011;1838;50.742;7.158;2023-04-25T01:46:23;15.53;;;5.10;;
3643;SDS011;1838;50.742;7.158;2023-04-25T01:48:48;14.87;;;4.93;;
3643;SDS011;1838;50.742;7.158;2023-04-25T01:51:14;12.03;;;5.03;;
3643;SDS011;1838;50.742;7.158;2023-04-25T01:53:40;11.63;;;4.60;;
3643;SDS011;1838;50.742;7.158;2023-04-25T01:56:06;21.40;;;5.00;;
3643;SDS011;1838;50.742;7.158;2023-04-25T01:58:31;19.00;;;4.90;;
3643;SDS011;1838;50.742;7.158;2023-04-25T02:00:57;18.97;;;5.90;;
3643;SDS011;1838;50.742;7.158;2023-04-25T02:03:23;12.10;;;5.73;;
3643;SDS011;1838;50.742;7.158;2023-04-25T02:05:48;23.80;;;5.53;;
3643;SDS011;1838;50.742;7.158;2023-04-25T02:08:14;17.63;;;6.20;;
3643;SDS011;1838;50.742;7.158;2023-04-25T02:10:41;18.67;;;6.87;;
3643;SDS011;1838;50.742;7.158;2023-04-25T02:13:06;15.30;;;5.73;;
3643;SDS011;1838;50.742;7.158;2023-04-25T02:15:32;13.27;;;5.53;;
3643;SDS011;1838;50.742;7.158;2023-04-25T02:17:57;18.20;;;6.03;;
3643;SDS011;1838;50.742;7.158;2023-04-25T02:20:25;10.50;;;5.60;;
3643;SDS011;1838;50.742;7.158;2023-04-25T02:22:51;17.43;;;6.03;;
3643;SDS011;1838;50.742;7.158;2023-04-25T02:25:17;14.10;;;6.43;;
3643;SDS011;1838;50.742;7.158;2023-04-25T02:27:44;11.53;;;5.13;;
3643;SDS011;1838;50.742;7.158;2023-04-25T02:30:10;14.50;;;6.53;;
3643;SDS011;1838;50.742;7.158;2023-04-25T02:32:36;18.70;;;6.87;;
3643;SDS011;1838;50.742;7.158;2023-04-25T02:35:02;13.20;;;6.17;;
3643;SDS011;1838;50.742;7.158;2023-04-25T02:37:31;11.20;;;6.23;;
3643;SDS011;1838;50.742;7.158;2023-04-25T02:40:00;15.00;;;6.63;;
3643;SDS011;1838;50.742;7.158;2023-04-25T02:42:26;18.10;;;7.67;;
3643;SDS011;1838;50.742;7.158;2023-04-25T02:44:52;20.83;;;6.20;;
3643;SDS011;1838;50.742;7.158;2023-04-25T02:47:18;21.70;;;6.97;;
3643;SDS011;1838;50.742;7.158;2023-04-25T02:49:43;22.97;;;6.80;;
3643;SDS011;1838;50.742;7.158;2023-04-25T02:52:10;16.33;;;6.33;;
3643;SDS011;1838;50.742;7.158;2023-04-25T02:54:36;16.97;;;7.17;;
3643;SDS011;1838;50.742;7.158;2023-04-25T02:57:03;19.77;;;6.50;;
3643;SDS011;1838;50.742;7.158;2023-04-25T02:59:28;16.03;;;6.90;;
3643;SDS011;1838;50.742;7.158;2023-04-25T03:01:54;19.80;;;7.63;;
3643;SDS011;1838;50.742;7.158;2023-04-25T03:04:19;12.23;;;6.03;;
3643;SDS011;1838;50.742;7.158;2023-04-25T03:06:45;15.33;;;7.07;;
3643;SDS011;1838;50.742;7.158;2023-04-25T03:09:11;16.43;;;5.57;;
3643;SDS011;1838;50.742;7.158;2023-04-25T03:11:38;19.17;;;5.50;;
3643;SDS011;1838;50.742;7.158;2023-04-25T03:14:03;19.67;;;6.40;;
3643;SDS011;1838;50.742;7.158;2023-04-25T03:16:29;21.43;;;6.70;;
3643;SDS011;1838;50.742;7.158;2023-04-25T03:18:55;19.90;;;7.27;;
3643;SDS011;1838;50.742;7.158;2023-04-25T03:21:22;23.23;;;6.60;;
3643;SDS011;1838;50.742;7.158;2023-04-25T03:23:47;17.00;;;6.37;;
3643;SDS011;1838;50.742;7.158;2023-04-25T03:26:13;14.33;;;5.83;;
3643;SDS011;1838;50.742;7.158;2023-04-25T03:28:38;13.83;;;5.00;;
3643;SDS011;1838;50.742;7.158;2023-04-25T03:31:05;16.50;;;6.60;;
3643;SDS011;1838;50.742;7.158;2023-04-25T03:33:30;13.40;;;6.23;;
3643;SDS011;1838;50.742;7.158;2023-04-25T03:35:56;12.20;;;5.70;;
3643;SDS011;1838;50.742;7.158;2023-04-25T03:38:22;22.03;;;5.73;;
3643;SDS011;1838;50.742;7.158;2023-04-25T03:40:48;11.40;;;5.30;;
3643;SDS011;1838;50.742;7.158;2023-04-25T03:43:15;11.70;;;5.63;;
3643;SDS011;1838;50.742;7.158;2023-04-25T03:45:41;17.63;;;5.73;;
3643;SDS011;1838;50.742;7.158;2023-04-25T03:48:06;14.80;;;6.07;;
3643;SDS011;1838;50.742;7.158;2023-04-25T03:50:32;13.70;;;5.57;;
3643;SDS011;1838;50.742;7.158;2023-04-25T03:52:58;11.83;;;5.57;;
3643;SDS011;1838;50.742;7.158;2023-04-25T03:55:23;19.60;;;5.90;;
3643;SDS011;1838;50.742;7.158;2023-04-25T03:57:48;18.43;;;5.93;;
3643;SDS011;1838;50.742;7.158;2023-04-25T04:00:14;13.73;;;5.00;;
3643;SDS011;1838;50.742;7.158;2023-04-25T04:02:40;18.07;;;6.10;;
3643;SDS011;1838;50.742;7.158;2023-04-25T04:05:05;16.47;;;5.60;;
3643;SDS011;1838;50.742;7.158;2023-04-25T04:07:31;21.47;;;7.17;;
3643;SDS011;1838;50.742;7.158;2023-04-25T04:09:58;18.97;;;7.20;;
3643;SDS011;1838;50.742;7.158;2023-04-25T04:12:24;17.13;;;6.17;;
3643;SDS011;1838;50.742;7.158;2023-04-25T04:14:49;16.60;;;6.50;;
3643;SDS011;1838;50.742;7.158;2023-04-25T04:17:15;27.40;;;8.33;;
3643;SDS011;1838;50.742;7.158;2023-04-25T04:19:41;15.23;;;6.37;;
3643;SDS011;1838;50.742;7.158;2023-04-25T04:22:06;28.23;;;7.33;;
3643;SDS011;1838;50.742;7.158;2023-04-25T04:24:32;19.80;;;6.43;;
3643;SDS011;1838;50.742;7.158;2023-04-25T04:26:57;18.20;;;7.23;;
3643;SDS011;1838;50.742;7.158;2023-04-25T04:29:23;17.10;;;7.80;;
3643;SDS011;1838;50.742;7.158;2023-04-25T04:31:49;24.07;;;7.77;;
3643;SDS011;1838;50.742;7.158;2023-04-25T04:34:16;15.00;;;6.40;;
3643;SDS011;1838;50.742;7.158;2023-04-25T04:36:43;20.27;;;6.90;;
3643;SDS011;1838;50.742;7.158;2023-04-25T04:39:11;27.03;;;8.17;;
3643;SDS011;1838;50.742;7.158;2023-04-25T04:41:38;21.63;;;7.13;;
3643;SDS011;1838;50.742;7.158;2023-04-25T04:44:04;22.07;;;7.57;;
3643;SDS011;1838;50.742;7.158;2023-04-25T04:46:31;24.03;;;7.30;;
3643;SDS011;1838;50.742;7.158;2023-04-25T04:49:02;22.00;;;6.77;;
3643;SDS011;1838;50.742;7.158;2023-04-25T04:51:31;21.20;;;7.17;;
3643;SDS011;1838;50.742;7.158;2023-04-25T04:53:56;16.83;;;7.43;;
3643;SDS011;1838;50.742;7.158;2023-04-25T04:56:23;19.13;;;6.57;;
3643;SDS011;1838;50.742;7.158;2023-04-25T04:58:50;19.87;;;7.50;;
3643;SDS011;1838;50.742;7.158;2023-04-25T05:01:16;16.33;;;6.47;;
3643;SDS011;1838;50.742;7.158;2023-04-25T05:03:41;24.93;;;8.27;;
3643;SDS011;1838;50.742;7.158;2023-04-25T05:06:07;17.57;;;7.17;;
3643;SDS011;1838;50.742;7.158;2023-04-25T05:08:33;18.40;;;6.20;;
3643;SDS011;1838;50.742;7.158;2023-04-25T05:10:59;22.07;;;7.07;;
3643;SDS011;1838;50.742;7.158;2023-04-25T05:13:24;26.03;;;8.30;;
3643;SDS011;1838;50.742;7.158;2023-04-25T05:15:50;20.57;;;8.13;;
3643;SDS011;1838;50.742;7.158;2023-04-25T05:18:15;25.50;;;6.70;;
3643;SDS011;1838;50.742;7.158;2023-04-25T05:20:41;27.33;;;8.30;;
3643;SDS011;1838;50.742;7.158;2023-04-25T05:23:07;21.10;;;6.87;;
3643;SDS011;1838;50.742;7.158;2023-04-25T05:25:32;22.50;;;7.97;;
3643;SDS011;1838;50.742;7.158;2023-04-25T05:27:58;18.40;;;8.00;;
3643;SDS011;1838;50.742;7.158;2023-04-25T05:30:23;31.00;;;8.30;;
3643;SDS011;1838;50.742;7.158;2023-04-25T05:32:49;20.83;;;7.80;;
3643;SDS011;1838;50.742;7.158;2023-04-25T05:35:15;19.77;;;8.53;;
3643;SDS011;1838;50.742;7.158;2023-04-25T05:37:40;15.47;;;7.00;;
3643;SDS011;1838;50.742;7.158;2023-04-25T05:40:06;19.80;;;8.63;;
3643;SDS011;1838;50.742;7.158;2023-04-25T05:42:33;16.53;;;8.07;;
3643;SDS011;1838;50.742;7.158;2023-04-25T05:44:58;14.80;;;7.40;;
3643;SDS011;1838;50.742;7.158;2023-04-25T05:47:24;24.73;;;9.23;;
3643;SDS011;1838;50.742;7.158;2023-04-25T05:49:49;17.70;;;7.60;;
3643;SDS011;1838;50.742;7.158;2023-04-25T05:52:15;19.80;;;8.40;;
3643;SDS011;1838;50.742;7.158;2023-04-25T05:54:40;16.30;;;8.07;;
3643;SDS011;1838;50.742;7.158;2023-04-25T05:57:06;21.57;;;8.33;;
3643;SDS011;1838;50.742;7.158;2023-04-25T05:59:31;19.03;;;7.13;;
3643;SDS011;1838;50.742;7.158;2023-04-25T06:01:57;17.80;;;8.37;;
3643;SDS011;1838;50.742;7.158;2023-04-25T06:04:22;18.30;;;7.50;;
3643;SDS011;1838;50.742;7.158;2023-04-25T06:06:48;23.23;;;7.77;;
3643;SDS011;1838;50.742;7.158;2023-04-25T06:09:14;13.27;;;7.27;;
3643;SDS011;1838;50.742;7.158;2023-04-25T06:11:39;15.10;;;7.43;;
3643;SDS011;1838;50.742;7.158;2023-04-25T06:14:05;19.53;;;9.43;;
3643;SDS011;1838;50.742;7.158;2023-04-25T06:16:31;17.73;;;8.63;;
3643;SDS011;1838;50.742;7.158;2023-04-25T06:18:57;17.57;;;8.10;;
3643;SDS011;1838;50.742;7.158;2023-04-25T06:21:22;12.90;;;6.53;;
3643;SDS011;1838;50.742;7.158;2023-04-25T06:23:48;18.63;;;7.10;;
3643;SDS011;1838;50.742;7.158;2023-04-25T06:26:13;20.63;;;7.43;;
3643;SDS011;1838;50.742;7.158;2023-04-25T06:28:39;23.00;;;6.90;;
3643;SDS011;1838;50.742;7.158;2023-04-25T06:31:05;22.57;;;6.73;;
3643;SDS011;1838;50.742;7.158;2023-04-25T06:33:30;26.63;;;5.43;;
3643;SDS011;1838;50.742;7.158;2023-04-25T06:35:56;13.53;;;6.23;;
3643;SDS011;1838;50.742;7.158;2023-04-25T06:38:21;21.80;;;6.40;;
3643;SDS011;1838;50.742;7.158;2023-04-25T06:40:47;34.30;;;6.37;;
3643;SDS011;1838;50.742;7.158;2023-04-25T06:43:12;24.90;;;7.13;;
3643;SDS011;1838;50.742;7.158;2023-04-25T06:45:38;19.13;;;6.10;;
3643;SDS011;1838;50.742;7.158;2023-04-25T06:48:03;15.77;;;7.10;;
3643;SDS011;1838;50.742;7.158;2023-04-25T06:50:29;38.90;;;6.77;;
3643;SDS011;1838;50.742;7.158;2023-04-25T06:52:54;24.70;;;6.07;;
3643;SDS011;1838;50.742;7.158;2023-04-25T06:55:20;29.90;;;6.73;;
3643;SDS011;1838;50.742;7.158;2023-04-25T06:57:45;26.43;;;6.70;;
3643;SDS011;1838;50.742;7.158;2023-04-25T07:00:11;19.13;;;6.37;;
3643;SDS011;1838;50.742;7.158;2023-04-25T07:02:37;29.13;;;7.47;;
3643;SDS011;1838;50.742;7.158;2023-04-25T07:05:03;20.53;;;7.47;;
3643;SDS011;1838;50.742;7.158;2023-04-25T07:07:29;14.70;;;6.20;;
3643;SDS011;1838;50.742;7.158;2023-04-25T07:09:55;19.77;;;5.80;;
3643;SDS011;1838;50.742;7.158;2023-04-25T07:12:21;26.97;;;7.10;;
3643;SDS011;1838;50.742;7.158;2023-04-25T07:14:47;24.13;;;7.40;;
3643;SDS011;1838;50.742;7.158;2023-04-25T07:17:12;18.07;;;7.10;;
3643;SDS011;1838;50.742;7.158;2023-04-25T07:19:38;21.03;;;7.07;;
3643;SDS011;1838;50.742;7.158;2023-04-25T07:22:04;13.50;;;6.37;;
3643;SDS011;1838;50.742;7.158;2023-04-25T07:24:30;15.23;;;5.00;;
3643;SDS011;1838;50.742;7.158;2023-04-25T07:26:56;12.00;;;5.83;;
3643;SDS011;1838;50.742;7.158;2023-04-25T07:29:22;26.93;;;6.70;;
3643;SDS011;1838;50.742;7.158;2023-04-25T07:31:48;21.10;;;6.77;;
3643;SDS011;1838;50.742;7.158;2023-04-25T07:34:14;11.77;;;5.07;;
3643;SDS011;1838;50.742;7.158;2023-04-25T07:36:40;13.17;;;4.57;;
3643;SDS011;1838;50.742;7.158;2023-04-25T07:39:06;26.23;;;5.50;;
3643;SDS011;1838;50.742;7.158;2023-04-25T07:41:32;21.27;;;5.07;;
3643;SDS011;1838;50.742;7.158;2023-04-25T07:43:58;10.40;;;4.80;;
3643;SDS011;1838;50.742;7.158;2023-04-25T07:46:23;17.07;;;4.80;;
3643;SDS011;1838;50.742;7.158;2023-04-25T07:48:49;17.60;;;4.97;;
3643;SDS011;1838;50.742;7.158;2023-04-25T07:51:14;18.50;;;5.77;;
3643;SDS011;1838;50.742;7.158;2023-04-25T07:53:40;11.60;;;5.93;;
3643;SDS011;1838;50.742;7.158;2023-04-25T07:56:05;9.57;;;4.70;;
3643;SDS011;1838;50.742;7.158;2023-04-25T07:58:31;16.60;;;4.40;;
3643;SDS011;1838;50.742;7.158;2023-04-25T08:00:57;16.50;;;4.90;;
3643;SDS011;1838;50.742;7.158;2023-04-25T08:03:22;18.50;;;5.63;;
3643;SDS011;1838;50.742;7.158;2023-04-25T08:05:48;11.63;;;4.40;;
3643;SDS011;1838;50.742;7.158;2023-04-25T08:08:13;13.27;;;5.07;;
3643;SDS011;1838;50.742;7.158;2023-04-25T08:10:39;23.07;;;5.17;;
3643;SDS011;1838;50.742;7.158;2023-04-25T08:13:05;18.97;;;4.70;;
3643;SDS011;1838;50.742;7.158;2023-04-25T08:15:30;16.93;;;5.23;;
3643;SDS011;1838;50.742;7.158;2023-04-25T08:17:56;13.30;;;3.77;;
3643;SDS011;1838;50.742;7.158;2023-04-25T08:20:21;12.80;;;3.67;;
3643;SDS011;1838;50.742;7.158;2023-04-25T08:22:47;8.63;;;2.70;;
3643;SDS011;1838;50.742;7.158;2023-04-25T08:25:13;10.10;;;3.30;;
3643;SDS011;1838;50.742;7.158;2023-04-25T08:27:39;10.73;;;3.10;;
3643;SDS011;1838;50.742;7.158;2023-04-25T08:30:05;13.60;;;3.53;;
3643;SDS011;1838;50.742;7.158;2023-04-25T08:32:33;11.73;;;4.47;;
3643;SDS011;1838;50.742;7.158;2023-04-25T08:34:58;9.83;;;3.53;;
3643;SDS011;1838;50.742;7.158;2023-04-25T08:37:24;10.93;;;3.63;;
3643;SDS011;1838;50.742;7.158;2023-04-25T08:39:50;7.33;;;3.60;;
3643;SDS011;1838;50.742;7.158;2023-04-25T08:42:18;12.07;;;3.60;;
3643;SDS011;1838;50.742;7.158;2023-04-25T08:44:46;11.13;;;3.50;;
3643;SDS011;1838;50.742;7.158;2023-04-25T08:47:13;7.00;;;3.80;;
3643;SDS011;1838;50.742;7.158;2023-04-25T08:49:38;12.00;;;3.90;;
3643;SDS011;1838;50.742;7.158;2023-04-25T08:52:09;13.50;;;3.37;;
3643;SDS011;1838;50.742;7.158;2023-04-25T08:54:37;11.43;;;3.10;;
3643;SDS011;1838;50.742;7.158;2023-04-25T08:57:09;10.23;;;2.90;;
3643;SDS011;1838;50.742;7.158;2023-04-25T08:59:34;15.07;;;3.67;;
3643;SDS011;1838;50.742;7.158;2023-04-25T09:02:03;13.23;;;2.70;;
3643;SDS011;1838;50.742;7.158;2023-04-25T09:04:32;10.30;;;3.60;;
3643;SDS011;1838;50.742;7.158;2023-04-25T09:06:57;6.43;;;3.27;;
3643;SDS011;1838;50.742;7.158;2023-04-25T09:09:23;19.53;;;3.70;;
3643;SDS011;1838;50.742;7.158;2023-04-25T09:11:49;8.00;;;2.57;;
3643;SDS011;1838;50.742;7.158;2023-04-25T09:14:18;10.30;;;3.30;;
3643;SDS011;1838;50.742;7.158;2023-04-25T09:19:25;10.30;;;2.80;;
3643;SDS011;1838;50.742;7.158;2023-04-25T09:21:56;10.33;;;3.50;;
3643;SDS011;1838;50.742;7.158;2023-04-25T09:24:33;4.53;;;2.77;;
3643;SDS011;1838;50.742;7.158;2023-04-25T09:27:07;17.87;;;3.60;;
3643;SDS011;1838;50.742;7.158;2023-04-25T09:29:34;8.63;;;3.03;;
3643;SDS011;1838;50.742;7.158;2023-04-25T09:32:15;7.63;;;3.53;;
3643;SDS011;1838;50.742;7.158;2023-04-25T09:34:46;7.10;;;2.80;;
3643;SDS011;1838;50.742;7.158;2023-04-25T09:37:16;8.97;;;2.70;;
3643;SDS011;1838;50.742;7.158;2023-04-25T09:39:44;13.30;;;3.07;;
3643;SDS011;1838;50.742;7.158;2023-04-25T09:42:12;6.83;;;3.27;;
3643;SDS011;1838;50.742;7.158;2023-04-25T09:44:41;8.30;;;3.53;;
3643;SDS011;1838;50.742;7.158;2023-04-25T09:47:09;10.23;;;3.40;;
3643;SDS011;1838;50.742;7.158;2023-04-25T09:49:38;12.20;;;2.73;;
3643;SDS011;1838;50.742;7.158;2023-04-25T09:52:06;6.80;;;3.10;;
3643;SDS011;1838;50.742;7.158;2023-04-25T09:54:31;10.33;;;4.00;;
3643;SDS011;1838;50.742;7.158;2023-04-25T09:56:57;4.93;;;2.43;;
3643;SDS011;1838;50.742;7.158;2023-04-25T09:59:27;8.07;;;2.50;;
3643;SDS011;1838;50.742;7.158;2023-04-25T10:01:56;10.47;;;2.87;;
3643;SDS011;1838;50.742;7.158;2023-04-25T10:04:23;5.77;;;3.03;;
3643;SDS011;1838;50.742;7.158;2023-04-25T10:06:51;9.87;;;2.70;;
3643;SDS011;1838;50.742;7.158;2023-04-25T10:09:20;6.00;;;2.80;;
3643;SDS011;1838;50.742;7.158;2023-04-25T10:11:46;11.80;;;3.50;;
3643;SDS011;1838;50.742;7.158;2023-04-25T10:14:15;15.37;;;3.57;;
3643;SDS011;1838;50.742;7.158;2023-04-25T10:16:41;7.00;;;2.87;;
3643;SDS011;1838;50.742;7.158;2023-04-25T10:19:07;7.10;;;3.03;;
3643;SDS011;1838;50.742;7.158;2023-04-25T10:21:34;7.60;;;2.37;;
3643;SDS011;1838;50.742;7.158;2023-04-25T10:24:09;4.87;;;2.20;;
3643;SDS011;1838;50.742;7.158;2023-04-25T10:26:35;10.10;;;2.60;;
3643;SDS011;1838;50.742;7.158;2023-04-25T10:29:01;9.33;;;2.73;;
3643;SDS011;1838;50.742;7.158;2023-04-25T10:31:31;3.30;;;2.10;;
3643;SDS011;1838;50.742;7.158;2023-04-25T10:33:58;14.20;;;3.40;;
3643;SDS011;1838;50.742;7.158;2023-04-25T10:36:25;3.57;;;2.30;;
3643;SDS011;1838;50.742;7.158;2023-04-25T10:38:52;5.57;;;2.77;;
3643;SDS011;1838;50.742;7.158;2023-04-25T10:41:19;11.00;;;3.20;;
3643;SDS011;1838;50.742;7.158;2023-04-25T10:43:46;7.50;;;2.17;;
3643;SDS011;1838;50.742;7.158;2023-04-25T10:46:15;10.87;;;3.17;;
3643;SDS011;1838;50.742;7.158;2023-04-25T10:48:57;10.60;;;2.77;;
3643;SDS011;1838;50.742;7.158;2023-04-25T10:51:27;6.10;;;2.70;;
3643;SDS011;1838;50.742;7.158;2023-04-25T10:53:59;13.90;;;3.57;;
3643;SDS011;1838;50.742;7.158;2023-04-25T10:56:27;9.43;;;2.80;;
3643;SDS011;1838;50.742;7.158;2023-04-25T10:59:07;7.00;;;2.80;;
3643;SDS011;1838;50.742;7.158;2023-04-25T11:01:36;8.97;;;3.00;;
3643;SDS011;1838;50.742;7.158;2023-04-25T11:04:02;12.03;;;3.67;;
3643;SDS011;1838;50.742;7.158;2023-04-25T11:08:56;11.57;;;3.10;;
3643;SDS011;1838;50.742;7.158;2023-04-25T11:11:22;7.97;;;3.87;;
3643;SDS011;1838;50.742;7.158;2023-04-25T11:13:49;8.63;;;3.90;;
3643;SDS011;1838;50.742;7.158;2023-04-25T11:16:15;5.77;;;2.73;;
3643;SDS011;1838;50.742;7.158;2023-04-25T11:18:42;6.53;;;2.70;;
3643;SDS011;1838;50.742;7.158;2023-04-25T11:21:09;8.67;;;3.07;;
3643;SDS011;1838;50.742;7.158;2023-04-25T11:23:35;8.33;;;3.40;;
3643;SDS011;1838;50.742;7.158;2023-04-25T11:26:01;7.10;;;3.30;;
3643;SDS011;1838;50.742;7.158;2023-04-25T11:28:28;5.90;;;2.80;;
3643;SDS011;1838;50.742;7.158;2023-04-25T11:30:53;7.27;;;3.70;;
3643;SDS011;1838;50.742;7.158;2023-04-25T11:33:23;6.07;;;3.07;;
3643;SDS011;1838;50.742;7.158;2023-04-25T11:35:49;5.77;;;3.20;;
3643;SDS011;1838;50.742;7.158;2023-04-25T11:38:15;6.70;;;3.33;;
3643;SDS011;1838;50.742;7.158;2023-04-25T11:40:40;13.33;;;3.20;;
3643;SDS011;1838;50.742;7.158;2023-04-25T11:43:06;7.77;;;3.33;;
3643;SDS011;1838;50.742;7.158;2023-04-25T11:45:32;8.70;;;3.27;;
3643;SDS011;1838;50.742;7.158;2023-04-25T11:47:57;6.43;;;3.10;;
3643;SDS011;1838;50.742;7.158;2023-04-25T11:50:23;9.97;;;3.27;;
3643;SDS011;1838;50.742;7.158;2023-04-25T11:52:49;11.67;;;4.20;;
3643;SDS011;1838;50.742;7.158;2023-04-25T11:55:15;7.00;;;3.20;;
3643;SDS011;1838;50.742;7.158;2023-04-25T11:57:43;9.37;;;2.87;;
3643;SDS011;1838;50.742;7.158;2023-04-25T12:00:14;7.47;;;3.40;;
3643;SDS011;1838;50.742;7.158;2023-04-25T12:02:54;7.13;;;3.47;;
3643;SDS011;1838;50.742;7.158;2023-04-25T12:05:29;7.70;;;2.70;;
3643;SDS011;1838;50.742;7.158;2023-04-25T12:07:58;14.53;;;3.17;;
3643;SDS011;1838;50.742;7.158;2023-04-25T12:10:33;7.17;;;2.53;;
3643;SDS011;1838;50.742;7.158;2023-04-25T12:13:17;9.20;;;2.80;;
3643;SDS011;1838;50.742;7.158;2023-04-25T12:15:56;11.07;;;2.10;;
3643;SDS011;1838;50.742;7.158;2023-04-25T12:18:22;9.67;;;2.20;;
3643;SDS011;1838;50.742;7.158;2023-04-25T12:20:50;7.23;;;1.63;;
3643;SDS011;1838;50.742;7.158;2023-04-25T12:23:20;3.53;;;2.00;;
3643;SDS011;1838;50.742;7.158;2023-04-25T12:25:51;8.23;;;2.43;;
3643;SDS011;1838;50.742;7.158;2023-04-25T12:28:17;2.83;;;1.70;;
3643;SDS011;1838;50.742;7.158;2023-04-25T12:33:31;9.90;;;1.90;;
3643;SDS011;1838;50.742;7.158;2023-04-25T12:36:02;15.63;;;3.50;;
3643;SDS011;1838;50.742;7.158;2023-04-25T12:38:37;15.90;;;2.93;;
3643;SDS011;1838;50.742;7.158;2023-04-25T12:41:05;4.40;;;2.07;;
3643;SDS011;1838;50.742;7.158;2023-04-25T12:43:31;6.37;;;2.67;;
3643;SDS011;1838;50.742;7.158;2023-04-25T12:45:56;10.13;;;2.60;;
3643;SDS011;1838;50.742;7.158;2023-04-25T12:48:22;5.77;;;2.13;;
3643;SDS011;1838;50.742;7.158;2023-04-25T12:50:48;6.57;;;2.53;;
3643;SDS011;1838;50.742;7.158;2023-04-25T12:53:16;5.67;;;1.90;;
3643;SDS011;1838;50.742;7.158;2023-04-25T12:55:46;8.40;;;2.93;;
3643;SDS011;1838;50.742;7.158;2023-04-25T12:58:12;7.83;;;2.60;;
3643;SDS011;1838;50.742;7.158;2023-04-25T13:00:42;7.83;;;2.90;;
3643;SDS011;1838;50.742;7.158;2023-04-25T13:03:08;4.43;;;2.43;;
3643;SDS011;1838;50.742;7.158;2023-04-25T13:05:35;11.30;;;2.90;;
3643;SDS011;1838;50.742;7.158;2023-04-25T13:08:01;7.30;;;2.93;;
3643;SDS011;1838;50.742;7.158;2023-04-25T13:10:27;6.90;;;2.17;;
3643;SDS011;1838;50.742;7.158;2023-04-25T13:12:52;7.23;;;2.50;;
3643;SDS011;1838;50.742;7.158;2023-04-25T13:15:19;8.03;;;3.03;;
3643;SDS011;1838;50.742;7.158;2023-04-25T13:17:45;5.03;;;2.23;;
3643;SDS011;1838;50.742;7.158;2023-04-25T13:20:10;4.87;;;2.30;;
3643;SDS011;1838;50.742;7.158;2023-04-25T13:22:37;4.20;;;1.70;;
3643;SDS011;1838;50.742;7.158;2023-04-25T13:25:03;3.70;;;1.90;;
3643;SDS011;1838;50.742;7.158;2023-04-25T13:27:30;5.50;;;2.23;;
3643;SDS011;1838;50.742;7.158;2023-04-25T13:29:57;2.63;;;2.20;;
3643;SDS011;1838;50.742;7.158;2023-04-25T13:32:23;5.80;;;2.67;;
3643;SDS011;1838;50.742;7.158;2023-04-25T13:34:48;16.60;;;2.53;;
3643;SDS011;1838;50.742;7.158;2023-04-25T13:37:14;9.70;;;2.80;;
3643;SDS011;1838;50.742;7.158;2023-04-25T13:39:40;4.97;;;2.10;;
3643;SDS011;1838;50.742;7.158;2023-04-25T13:42:06;6.40;;;2.13;;
3643;SDS011;1838;50.742;7.158;2023-04-25T13:44:31;7.70;;;2.10;;
3643;SDS011;1838;50.742;7.158;2023-04-25T13:46:56;4.13;;;2.30;;
3643;SDS011;1838;50.742;7.158;2023-04-25T13:49:22;10.20;;;2.97;;
3643;SDS011;1838;50.742;7.158;2023-04-25T13:51:48;5.93;;;2.03;;
3643;SDS011;1838;50.742;7.158;2023-04-25T13:54:13;5.93;;;1.77;;
3643;SDS011;1838;50.742;7.158;2023-04-25T13:56:39;6.53;;;2.80;;
3643;SDS011;1838;50.742;7.158;2023-04-25T13:59:07;5.07;;;2.00;;
3643;SDS011;1838;50.742;7.158;2023-04-25T14:01:32;11.50;;;3.47;;
3643;SDS011;1838;50.742;7.158;2023-04-25T14:04:00;3.70;;;2.17;;
3643;SDS011;1838;50.742;7.158;2023-04-25T14:06:26;7.60;;;2.60;;
3643;SDS011;1838;50.742;7.158;2023-04-25T14:08:53;7.60;;;1.90;;
3643;SDS011;1838;50.742;7.158;2023-04-25T14:11:19;5.20;;;2.10;;
3643;SDS011;1838;50.742;7.158;2023-04-25T14:13:45;8.00;;;2.70;;
3643;SDS011;1838;50.742;7.158;2023-04-25T14:16:11;6.10;;;2.30;;
3643;SDS011;1838;50.742;7.158;2023-04-25T14:18:36;6.57;;;3.13;;
3643;SDS011;1838;50.742;7.158;2023-04-25T14:21:02;9.20;;;3.30;;
3643;SDS011;1838;50.742;7.158;2023-04-25T14:23:27;9.63;;;3.50;;
3643;SDS011;1838;50.742;7.158;2023-04-25T14:25:53;4.77;;;2.57;;
3643;SDS011;1838;50.742;7.158;2023-04-25T14:28:19;4.60;;;2.27;;
3643;SDS011;1838;50.742;7.158;2023-04-25T14:30:44;7.87;;;2.10;;
3643;SDS011;1838;50.742;7.158;2023-04-25T14:33:10;6.50;;;2.57;;
3643;SDS011;1838;50.742;7.158;2023-04-25T14:35:36;5.30;;;2.10;;
3643;SDS011;1838;50.742;7.158;2023-04-25T14:38:02;5.43;;;2.53;;
3643;SDS011;1838;50.742;7.158;2023-04-25T14:40:27;7.53;;;2.23;;
3643;SDS011;1838;50.742;7.158;2023-04-25T14:42:53;3.33;;;2.43;;
3643;SDS011;1838;50.742;7.158;2023-04-25T14:45:18;8.10;;;2.13;;
3643;SDS011;1838;50.742;7.158;2023-04-25T14:47:44;4.93;;;2.03;;
3643;SDS011;1838;50.742;7.158;2023-04-25T14:50:10;3.00;;;2.30;;
3643;SDS011;1838;50.742;7.158;2023-04-25T14:52:35;11.83;;;3.27;;
3643;SDS011;1838;50.742;7.158;2023-04-25T14:55:01;9.03;;;6.77;;
3643;SDS011;1838;50.742;7.158;2023-04-25T14:57:30;8.50;;;2.90;;
3643;SDS011;1838;50.742;7.158;2023-04-25T14:59:57;9.20;;;2.90;;
3643;SDS011;1838;50.742;7.158;2023-04-25T15:02:23;6.93;;;2.50;;
3643;SDS011;1838;50.742;7.158;2023-04-25T15:04:49;5.40;;;2.30;;
3643;SDS011;1838;50.742;7.158;2023-04-25T15:07:15;5.17;;;2.30;;
3643;SDS011;1838;50.742;7.158;2023-04-25T15:09:40;2.00;;;1.33;;